Time;durP1;ratioP1;P1;durP2;ratioP2;P2;SDS_P1;SDS_P2;PMS_P1;PMS_P2;Temp;Humidity;BMP_temperature;BMP_pressure;BME280_temperature;BME280_humidity;BME280_pressure;Samples;Min_cycle;Max_cycle;Signal;HPM_P1;HPM_P2
2023/05/09 00:01:10;;;;;;;26.83;22.00;;;;;;;14.67;100.00;101600.75;5265230;28;20056;-67
2023/05/09 00:03:41;;;;;;;25.52;21.90;;;;;;;14.64;100.00;101603.41;5264770;28;20411;-67
2023/05/09 00:06:14;;;;;;;26.30;23.30;;;;;;;14.58;100.00;101593.84;5263822;28;20029;-67
2023/05/09 00:08:45;;;;;;;23.02;20.02;;;;;;;14.64;100.00;101586.81;5264511;28;20086;-67
2023/05/09 00:11:17;;;;;;;24.50;21.03;;;;;;;14.51;100.00;101591.38;5264570;28;20431;-67
2023/05/09 00:13:49;;;;;;;27.97;22.77;;;;;;;14.51;100.00;101596.63;5264669;28;20029;-66
2023/05/09 00:16:22;;;;;;;26.60;21.13;;;;;;;14.52;100.00;101591.34;5264684;28;20056;-67
2023/05/09 00:18:54;;;;;;;23.73;20.75;;;;;;;14.52;100.00;101590.44;5264246;28;20029;-67
2023/05/09 00:21:27;;;;;;;26.30;20.50;;;;;;;14.44;100.00;101584.47;5264601;28;20033;-67
2023/05/09 00:23:59;;;;;;;22.80;19.73;;;;;;;14.35;100.00;101582.88;5263277;28;20046;-67
2023/05/09 00:26:30;;;;;;;23.00;19.65;;;;;;;14.39;100.00;101585.44;5264517;28;20040;-67
2023/05/09 00:29:01;;;;;;;24.37;19.77;;;;;;;14.38;100.00;101580.22;5262675;28;20053;-68
2023/05/09 00:31:33;;;;;;;23.60;19.30;;;;;;;14.44;100.00;101581.84;5264354;28;20040;-68
2023/05/09 00:34:04;;;;;;;24.17;18.97;;;;;;;14.49;100.00;101570.41;5263965;28;20029;-68
2023/05/09 00:36:36;;;;;;;23.53;18.70;;;;;;;14.43;100.00;101565.25;5264364;28;20033;-67
2023/05/09 00:39:07;;;;;;;21.23;17.20;;;;;;;14.46;100.00;101554.72;5264195;28;20032;-68
2023/05/09 00:41:38;;;;;;;20.30;17.60;;;;;;;14.44;100.00;101551.25;5264211;28;20112;-68
2023/05/09 00:44:09;;;;;;;25.17;18.57;;;;;;;14.44;100.00;101566.09;5263854;28;20159;-69
2023/05/09 00:46:42;;;;;;;22.53;19.07;;;;;;;14.42;100.00;101576.63;5246075;28;20107;-68
2023/05/09 00:49:13;;;;;;;21.73;18.50;;;;;;;14.40;100.00;101573.16;5264112;28;20033;-67
2023/05/09 00:51:46;;;;;;;22.63;18.87;;;;;;;14.46;100.00;101557.34;5263956;28;20056;-68
2023/05/09 00:54:17;;;;;;;20.27;16.88;;;;;;;14.42;100.00;101545.16;5263850;28;20029;-67
2023/05/09 00:56:50;;;;;;;20.83;16.57;;;;;;;14.49;100.00;101557.28;5263888;28;20028;-68
2023/05/09 00:59:21;;;;;;;;;;;;;;;14.55;100.00;101545.81;5262986;28;20465;-67
2023/05/09 01:01:52;;;;;;;23.90;16.85;;;;;;;14.45;100.00;101547.72;5263741;28;19962;-68
2023/05/09 01:04:24;;;;;;;20.53;16.27;;;;;;;14.38;100.00;101530.38;5264053;28;20036;-67
2023/05/09 01:07:28;;;;;;;22.97;17.57;;;;;;;14.36;100.00;101534.75;5245268;28;20033;-68
2023/05/09 01:10:05;;;;;;;18.95;15.85;;;;;;;14.41;100.00;101533.78;5240682;28;20393;-66
2023/05/09 01:12:46;;;;;;;19.95;16.30;;;;;;;14.34;100.00;101521.66;5241132;28;20105;-67
2023/05/09 01:15:43;;;;;;;20.38;16.23;;;;;;;14.34;100.00;101526.91;5242840;28;20385;-68
2023/05/09 01:18:24;;;;;;;18.45;15.00;;;;;;;14.38;100.00;101527.75;5242176;28;20476;-68
2023/05/09 01:21:02;;;;;;;21.95;16.42;;;;;;;14.35;100.00;101514.69;5242570;28;20103;-68
2023/05/09 01:23:46;;;;;;;19.20;15.02;;;;;;;14.29;100.00;101512.16;5242766;28;20025;-67
2023/05/09 01:26:29;;;;;;;17.98;14.88;;;;;;;14.33;100.00;101503.31;5242581;28;20374;-68
2023/05/09 01:29:38;;;;;;;17.80;15.23;;;;;;;14.32;100.00;101493.75;5242572;28;20049;-68
2023/05/09 01:32:14;;;;;;;19.52;15.20;;;;;;;14.36;100.00;101487.53;5241775;28;20045;-68
2023/05/09 01:34:50;;;;;;;16.88;15.07;;;;;;;14.28;100.00;101497.28;5242303;28;20036;-68
2023/05/09 01:37:30;;;;;;;17.77;15.00;;;;;;;14.33;100.00;101492.84;5242413;28;20036;-68
2023/05/09 01:40:13;;;;;;;17.02;15.23;;;;;;;14.30;100.00;101493.78;5242196;28;20053;-67
2023/05/09 01:42:48;;;;;;;;;;;;;;;14.34;100.00;101484.09;5242865;28;20029;-67
2023/05/09 01:45:22;;;;;;;19.98;14.93;;;;;;;14.30;100.00;101479.81;5242272;28;19936;-67
2023/05/09 01:47:56;;;;;;;19.95;15.50;;;;;;;14.26;100.00;101480.72;5241987;28;20025;-68
2023/05/09 01:50:28;;;;;;;18.05;16.00;;;;;;;14.23;100.00;101473.78;5242185;28;20095;-67
2023/05/09 01:53:02;;;;;;;19.77;16.50;;;;;;;14.25;100.00;101473.75;5241488;28;20064;-68
2023/05/09 01:55:35;;;;;;;18.10;15.07;;;;;;;14.19;100.00;101469.50;5242477;28;20037;-67
2023/05/09 01:58:08;;;;;;;19.45;16.00;;;;;;;14.20;100.00;101477.31;5240789;28;20384;-68
2023/05/09 02:00:40;;;;;;;20.35;16.48;;;;;;;14.12;100.00;101467.84;5241431;28;20052;-67
2023/05/09 02:03:12;;;;;;;22.40;16.53;;;;;;;14.08;100.00;101467.03;5241797;28;20037;-68
2023/05/09 02:05:45;;;;;;;20.55;17.67;;;;;;;14.07;100.00;101467.06;5242000;28;20029;-68
2023/05/09 02:08:20;;;;;;;20.17;16.10;;;;;;;14.03;100.00;101455.75;5241979;28;20041;-67
2023/05/09 02:10:51;;;;;;;20.98;16.30;;;;;;;14.02;100.00;101454.91;5273348;28;20037;-67
2023/05/09 02:13:23;;;;;;;21.25;16.35;;;;;;;13.95;100.00;101453.25;5241566;28;20044;-67
2023/05/09 02:15:55;;;;;;;21.33;17.17;;;;;;;13.93;100.00;101451.56;5241872;28;20133;-68
2023/05/09 02:18:28;;;;;;;20.92;16.40;;;;;;;13.99;100.00;101456.69;5241839;28;20128;-67
2023/05/09 02:21:00;;;;;;;20.25;16.10;;;;;;;13.92;100.00;101462.94;5241740;28;20120;-67
2023/05/09 02:23:32;;;;;;;;;;;;;;;13.98;100.00;101468.09;5242189;28;20080;-68
2023/05/09 02:26:03;;;;;;;20.15;15.48;;;;;;;13.90;100.00;101457.72;5242048;28;20008;-68
2023/05/09 02:28:35;;;;;;;20.63;16.37;;;;;;;13.88;100.00;101472.63;5240999;28;20037;-67
2023/05/09 02:31:08;;;;;;;22.40;16.67;;;;;;;13.86;100.00;101470.00;5240454;28;20041;-68
2023/05/09 02:33:40;;;;;;;;;;;;;;;13.84;100.00;101466.53;5273946;28;20030;-67
2023/05/09 02:36:13;;;;;;;19.90;16.92;;;;;;;13.82;100.00;101462.22;5241314;28;19943;-67
2023/05/09 02:38:45;;;;;;;23.65;16.98;;;;;;;13.78;100.00;101466.66;5241339;28;20040;-68
2023/05/09 02:41:16;;;;;;;22.73;16.93;;;;;;;13.74;100.00;101466.72;5241642;28;20370;-67
2023/05/09 02:43:47;;;;;;;20.23;15.97;;;;;;;13.75;100.00;101464.06;5241641;28;20275;-68
2023/05/09 02:46:19;;;;;;;23.47;17.70;;;;;;;13.71;100.00;101451.03;5241619;28;20034;-68
2023/05/09 02:48:51;;;;;;;26.70;18.07;;;;;;;13.68;100.00;101444.06;5241627;28;20536;-67
2023/05/09 02:51:22;;;;;;;23.30;17.17;;;;;;;13.68;100.00;101446.69;5273551;28;20047;-67
2023/05/09 02:53:54;;;;;;;25.40;17.30;;;;;;;13.65;100.00;101446.75;5241421;28;20030;-66
2023/05/09 02:56:26;;;;;;;23.00;18.17;;;;;;;13.59;100.00;101446.84;5273451;28;20026;-67
2023/05/09 02:58:57;;;;;;;20.93;17.23;;;;;;;13.57;100.00;101439.03;5240973;28;20048;-68
2023/05/09 03:01:28;;;;;;;21.53;17.30;;;;;;;13.58;100.00;101437.25;5241417;28;20477;-68
2023/05/09 03:04:00;;;;;;;23.37;17.27;;;;;;;13.57;100.00;101432.91;5241456;28;20414;-67
2023/05/09 03:06:31;;;;;;;22.77;16.47;;;;;;;13.56;100.00;101424.19;5241170;28;20037;-68
2023/05/09 03:09:03;;;;;;;22.13;17.43;;;;;;;13.58;100.00;101422.38;5241326;28;20032;-67
2023/05/09 03:11:35;;;;;;;21.43;17.70;;;;;;;13.58;100.00;101422.38;5241407;28;20071;-68
2023/05/09 03:14:07;;;;;;;24.33;17.25;;;;;;;13.55;100.00;101414.56;5241293;28;20288;-68
2023/05/09 03:16:38;;;;;;;25.90;18.97;;;;;;;13.58;100.00;101409.28;5273258;28;20048;-67
2023/05/09 03:19:10;;;;;;;20.30;17.53;;;;;;;13.55;100.00;101404.09;5241313;28;20798;-67
2023/05/09 03:21:41;;;;;;;24.87;19.03;;;;;;;13.57;100.00;101417.19;5241017;28;20033;-68
2023/05/09 03:24:12;;;;;;;22.73;18.57;;;;;;;13.59;100.00;101412.81;5244917;28;20044;-67
2023/05/09 03:26:44;;;;;;;22.23;17.20;;;;;;;13.58;100.00;101411.06;5244841;28;20060;-67
2023/05/09 03:29:15;;;;;;;21.27;17.50;;;;;;;13.55;100.00;101404.09;5276302;28;20505;-67
2023/05/09 03:31:47;;;;;;;22.30;17.43;;;;;;;13.58;100.00;101408.44;5244897;28;20053;-67
2023/05/09 03:34:18;;;;;;;21.80;17.37;;;;;;;13.55;100.00;101408.47;5244364;28;20037;-68
2023/05/09 03:36:49;;;;;;;21.77;17.77;;;;;;;13.57;100.00;101404.06;5244688;28;20381;-68
2023/05/09 03:39:21;;;;;;;21.80;17.07;;;;;;;13.53;100.00;101408.50;5244798;28;20083;-68
2023/05/09 03:41:52;;;;;;;22.87;18.37;;;;;;;13.53;100.00;101403.25;5276436;28;20113;-68
2023/05/09 03:44:24;;;;;;;25.80;19.73;;;;;;;13.46;100.00;101402.50;5244950;28;20030;-67
2023/05/09 03:46:56;;;;;;;23.38;18.42;;;;;;;13.49;100.00;101404.19;5276160;28;20034;-68
2023/05/09 03:49:27;;;;;;;24.23;18.27;;;;;;;13.48;100.00;101392.84;5276676;28;20039;-68
2023/05/09 03:51:58;;;;;;;22.37;17.03;;;;;;;13.48;100.00;101390.25;5276376;28;20168;-68
2023/05/09 03:54:30;;;;;;;25.10;18.73;;;;;;;13.45;100.00;101394.66;5243240;28;20531;-68
2023/05/09 03:57:01;;;;;;;24.17;18.17;;;;;;;13.42;100.00;101381.63;5244011;28;20033;-68
2023/05/09 03:59:32;;;;;;;22.13;18.00;;;;;;;13.45;100.00;101382.41;5243790;28;20369;-68
2023/05/09 04:02:04;;;;;;;20.93;18.07;;;;;;;13.42;100.00;101392.94;5244276;28;20065;-67
2023/05/09 04:04:36;;;;;;;23.10;17.92;;;;;;;13.41;100.00;101387.72;5244155;28;20033;-67
2023/05/09 04:07:07;;;;;;;20.40;17.27;;;;;;;13.41;100.00;101390.34;5244045;28;20038;-68
2023/05/09 04:09:41;;;;;;;22.90;17.77;;;;;;;13.38;100.00;101375.56;5244020;28;20029;-68
2023/05/09 04:12:12;;;;;;;21.10;16.83;;;;;;;13.40;100.00;101357.22;5243343;28;20047;-68
2023/05/09 04:14:44;;;;;;;19.53;15.50;;;;;;;13.38;100.00;101359.84;5243878;28;20394;-67
2023/05/09 04:17:15;;;;;;;18.13;15.57;;;;;;;13.39;100.00;101360.72;5243696;28;20109;-68
2023/05/09 04:19:46;;;;;;;19.93;15.77;;;;;;;13.39;100.00;101358.94;5275654;28;20067;-67
2023/05/09 04:22:18;;;;;;;22.23;15.13;;;;;;;13.35;100.00;101361.63;5243677;28;20029;-67
2023/05/09 04:24:50;;;;;;;22.10;15.83;;;;;;;13.32;100.00;101355.56;5275632;28;20116;-67
2023/05/09 04:27:22;;;;;;;17.80;14.73;;;;;;;13.38;100.00;101364.19;5243125;28;20050;-67
2023/05/09 04:29:55;;;;;;;19.50;14.48;;;;;;;13.39;100.00;101358.94;5243110;28;20042;-68
2023/05/09 04:32:26;;;;;;;15.43;13.40;;;;;;;13.39;100.00;101351.09;5243116;28;20500;-66
2023/05/09 04:34:57;;;;;;;16.60;14.00;;;;;;;13.44;100.00;101354.53;5275505;28;20471;-67
2023/05/09 04:37:30;;;;;;;17.63;13.30;;;;;;;13.48;100.00;101350.94;5243371;28;20077;-68
2023/05/09 04:40:03;;;;;;;;;;;;;;;13.55;100.00;101362.19;5243622;28;20080;-67
2023/05/09 04:42:34;;;;;;;18.65;15.02;;;;;;;13.52;100.00;101350.91;5243169;28;19920;-66
2023/05/09 04:45:06;;;;;;;17.70;14.60;;;;;;;13.57;100.00;101351.69;5243059;28;20041;-67
2023/05/09 04:47:38;;;;;;;16.98;13.23;;;;;;;13.62;100.00;101350.75;5242734;28;20280;-66
2023/05/09 04:50:10;;;;;;;19.37;14.33;;;;;;;13.72;100.00;101347.94;5242525;28;20199;-67
2023/05/09 04:52:41;;;;;;;18.30;13.73;;;;;;;13.74;100.00;101341.81;5242851;28;20480;-67
2023/05/09 04:55:12;;;;;;;16.90;13.87;;;;;;;13.79;100.00;101341.72;5242899;28;20272;-66
2023/05/09 04:57:44;;;;;;;15.30;13.27;;;;;;;13.80;100.00;101336.47;5242550;28;20033;-66
2023/05/09 05:00:16;;;;;;;15.60;14.03;;;;;;;13.82;100.00;101339.91;5274142;28;20389;-67
2023/05/09 05:02:47;;;;;;;14.75;13.23;;;;;;;13.85;100.00;101334.63;5242737;28;20423;-68
2023/05/09 05:05:19;;;;;;;15.83;13.20;;;;;;;13.88;100.00;101331.09;5274371;28;20033;-67
2023/05/09 05:07:50;;;;;;;17.87;12.00;;;;;;;13.88;100.00;101319.72;5242646;28;20033;-66
2023/05/09 05:10:22;;;;;;;15.27;12.50;;;;;;;13.93;100.00;101312.66;5242590;28;20030;-66
2023/05/09 05:12:53;;;;;;;16.90;14.10;;;;;;;13.93;100.00;101310.03;5242495;28;20033;-66
2023/05/09 05:15:25;;;;;;;14.97;12.33;;;;;;;13.96;100.00;101304.72;5274250;28;20036;-66
2023/05/09 05:17:57;;;;;;;16.05;13.10;;;;;;;14.00;100.00;101307.25;5242491;28;20032;-66
2023/05/09 05:20:28;;;;;;;14.90;13.33;;;;;;;14.02;100.00;101305.50;5242478;28;20026;-66
2023/05/09 05:22:59;;;;;;;14.03;12.30;;;;;;;14.05;100.00;101299.31;5274436;28;20044;-66
2023/05/09 05:25:31;;;;;;;13.50;12.07;;;;;;;14.06;100.00;101305.44;5241183;28;20036;-66
2023/05/09 05:28:02;;;;;;;15.63;13.07;;;;;;;14.14;100.00;101304.38;5241754;28;20049;-66
2023/05/09 05:30:34;;;;;;;15.07;12.67;;;;;;;14.23;100.00;101290.22;5273908;28;20116;-66
2023/05/09 05:33:05;;;;;;;16.07;13.00;;;;;;;14.33;100.00;101288.28;5241749;28;20033;-67
2023/05/09 05:35:36;;;;;;;17.93;12.63;;;;;;;14.39;100.00;101288.16;5242585;28;20044;-67
2023/05/09 05:38:08;;;;;;;18.23;12.80;;;;;;;14.48;100.00;101293.22;5242008;28;20057;-66
2023/05/09 05:40:39;;;;;;;16.43;12.07;;;;;;;14.55;100.00;101289.59;5242134;28;20033;-66
2023/05/09 05:43:10;;;;;;;14.57;13.07;;;;;;;14.69;100.00;101283.19;5241891;28;20037;-67
2023/05/09 05:45:42;;;;;;;14.73;13.17;;;;;;;14.71;100.00;101278.78;5256988;28;20030;-66
2023/05/09 05:48:13;;;;;;;15.93;13.43;;;;;;;14.71;100.00;101271.75;5241804;28;20109;-66
2023/05/09 05:50:45;;;;;;;15.87;13.20;;;;;;;14.72;100.00;101276.13;5242018;28;20377;-66
2023/05/09 05:53:16;;;;;;;15.27;12.60;;;;;;;14.76;99.94;101275.16;5241954;28;20026;-67
2023/05/09 05:55:48;;;;;;;15.70;13.97;;;;;;;14.72;99.39;101272.63;5242016;28;20053;-67
2023/05/09 05:58:19;;;;;;;16.83;12.33;;;;;;;14.80;99.49;101264.59;5241718;28;20032;-66
2023/05/09 06:00:51;;;;;;;13.83;12.43;;;;;;;14.86;99.21;101269.69;5273387;28;20102;-67
2023/05/09 06:03:23;;;;;;;14.75;12.13;;;;;;;14.91;98.72;101254.72;5241737;28;20475;-67
2023/05/09 06:05:55;;;;;;;15.33;11.33;;;;;;;15.00;98.16;101259.72;5241351;28;20156;-67
2023/05/09 06:08:26;;;;;;;15.95;11.80;;;;;;;14.99;97.67;101265.91;5273607;28;20090;-65
2023/05/09 06:10:59;;;;;;;16.33;12.20;;;;;;;15.09;97.89;101254.25;5273425;28;20120;-67
2023/05/09 06:13:31;;;;;;;12.52;11.05;;;;;;;15.11;97.57;101247.19;5241490;28;20416;-66
2023/05/09 06:16:02;;;;;;;13.73;11.60;;;;;;;15.21;97.33;101247.00;5241432;28;20037;-67
2023/05/09 06:18:38;;;;;;;12.80;11.10;;;;;;;15.22;96.25;101252.19;5239926;28;20080;-66
2023/05/09 06:21:10;;;;;;;13.60;10.85;;;;;;;15.25;95.25;101244.25;5241497;28;20033;-66
2023/05/09 06:23:41;;;;;;;11.67;10.57;;;;;;;15.24;95.60;101247.75;5257090;28;20485;-66
2023/05/09 06:26:13;;;;;;;12.20;10.90;;;;;;;15.24;95.38;101250.38;5241821;28;20465;-66
2023/05/09 06:28:45;;;;;;;13.40;11.13;;;;;;;15.23;95.66;101250.44;5240833;28;20099;-69
2023/05/09 06:31:16;;;;;;;13.77;11.93;;;;;;;15.20;95.28;101253.13;5241187;28;20034;-66
2023/05/09 06:33:47;;;;;;;12.43;11.13;;;;;;;15.25;95.14;101243.41;5241562;28;20108;-66
2023/05/09 06:36:19;;;;;;;18.50;11.83;;;;;;;15.32;95.14;101244.94;5240278;28;20362;-66
2023/05/09 06:38:50;;;;;;;16.13;12.37;;;;;;;15.36;94.93;101241.38;5241239;28;20040;-67
2023/05/09 06:41:22;;;;;;;12.77;10.67;;;;;;;15.36;93.69;101236.09;5241598;28;20036;-66
2023/05/09 06:43:53;;;;;;;12.40;10.20;;;;;;;15.44;94.15;101233.25;5256741;28;20099;-66
2023/05/09 06:46:25;;;;;;;12.07;10.87;;;;;;;15.51;93.39;101234.84;5241462;28;20029;-66
2023/05/09 06:48:56;;;;;;;11.60;10.18;;;;;;;15.61;92.82;101235.47;5240277;28;20491;-67
2023/05/09 06:51:28;;;;;;;12.67;11.27;;;;;;;15.63;92.93;101231.00;5241370;28;20056;-67
2023/05/09 06:53:59;;;;;;;15.73;11.17;;;;;;;15.74;93.09;101228.97;5241174;28;20369;-66
2023/05/09 06:56:31;;;;;;;16.43;10.27;;;;;;;15.76;92.16;101221.03;5241248;28;20755;-66
2023/05/09 06:59:02;;;;;;;15.33;11.00;;;;;;;15.75;92.04;101221.97;5244247;28;20029;-65
2023/05/09 07:01:34;;;;;;;12.30;10.33;;;;;;;15.73;92.32;101215.88;5245482;28;20071;-65
2023/05/09 07:04:05;;;;;;;11.07;9.77;;;;;;;15.69;92.46;101221.19;5245074;28;20064;-66
2023/05/09 07:06:36;;;;;;;13.33;10.57;;;;;;;15.62;91.89;101210.91;5245161;28;20604;-65
2023/05/09 07:09:08;;;;;;;13.67;10.63;;;;;;;15.72;92.81;101212.38;5245024;28;20033;-66
2023/05/09 07:11:40;;;;;;;12.05;9.93;;;;;;;15.68;92.58;101213.34;5244961;28;20022;-65
2023/05/09 07:14:11;;;;;;;14.37;11.27;;;;;;;15.62;92.66;101214.41;5244693;28;20110;-66
2023/05/09 07:16:43;;;;;;;12.03;10.00;;;;;;;15.55;92.93;101209.34;5260382;28;20116;-67
2023/05/09 07:19:14;;;;;;;11.50;10.33;;;;;;;15.42;92.93;101198.28;5276735;28;20491;-65
2023/05/09 07:21:46;;;;;;;12.23;9.20;;;;;;;15.44;93.94;101202.63;5244687;28;20511;-65
2023/05/09 07:24:17;;;;;;;13.87;9.43;;;;;;;15.40;93.91;101197.47;5244761;28;20029;-66
2023/05/09 07:26:48;;;;;;;11.37;8.83;;;;;;;15.37;93.46;101200.19;5244743;28;20088;-66
2023/05/09 07:29:20;;;;;;;11.20;8.97;;;;;;;15.35;93.50;101204.63;5243450;28;20057;-66
2023/05/09 07:31:51;;;;;;;10.30;8.93;;;;;;;15.25;94.26;101190.88;5244569;28;20136;-66
2023/05/09 07:34:24;;;;;;;12.10;8.53;;;;;;;15.27;94.77;101197.78;5244512;28;20057;-66
2023/05/09 07:36:57;;;;;;;14.55;8.70;;;;;;;15.07;96.33;101202.69;5244474;28;20037;-66
2023/05/09 07:39:28;;;;;;;10.27;8.45;;;;;;;14.79;98.79;101200.72;5244398;28;20041;-65
2023/05/09 07:42:00;;;;;;;9.77;8.57;;;;;;;14.53;100.00;101196.91;5244431;28;20029;-66
2023/05/09 07:44:31;;;;;;;9.87;8.57;;;;;;;14.53;100.00;101199.53;5242879;28;20033;-65
2023/05/09 07:47:04;;;;;;;10.30;9.20;;;;;;;14.48;100.00;101188.28;5244024;28;20025;-65
2023/05/09 07:49:35;;;;;;;9.85;8.85;;;;;;;14.45;100.00;101183.09;5276042;28;20041;-66
2023/05/09 07:52:06;;;;;;;9.90;8.90;;;;;;;14.66;100.00;101186.19;5244138;28;20037;-65
2023/05/09 07:54:38;;;;;;;10.87;9.43;;;;;;;14.82;100.00;101187.53;5244323;28;20116;-68
2023/05/09 07:57:09;;;;;;;11.70;8.93;;;;;;;14.91;100.00;101182.06;5259374;28;20034;-65
2023/05/09 07:59:41;;;;;;;13.23;9.40;;;;;;;14.91;100.00;101182.06;5243439;28;20037;-64
2023/05/09 08:02:12;;;;;;;9.40;8.10;;;;;;;14.95;100.00;101165.31;5243754;28;20558;-65
2023/05/09 08:04:47;;;;;;;13.37;9.03;;;;;;;15.02;100.00;101167.81;5276020;28;20030;-65
2023/05/09 08:07:18;;;;;;;11.68;8.60;;;;;;;15.20;100.00;101167.34;5243722;28;20038;-66
2023/05/09 08:09:50;;;;;;;10.53;8.30;;;;;;;15.20;99.29;101171.72;5243171;28;20052;-67
2023/05/09 08:12:21;;;;;;;10.10;7.37;;;;;;;14.97;100.00;101157.41;5243758;28;20040;-65
2023/05/09 08:14:52;;;;;;;12.87;7.87;;;;;;;15.20;100.00;101153.34;5243604;28;20037;-65
2023/05/09 08:17:24;;;;;;;9.07;6.70;;;;;;;15.60;100.00;101149.63;5275687;28;20104;-66
2023/05/09 08:19:55;;;;;;;11.07;7.10;;;;;;;15.52;98.17;101149.88;5243604;28;20030;-65
2023/05/09 08:22:26;;;;;;;7.80;7.00;;;;;;;15.77;97.97;101150.06;5243771;28;20037;-65
2023/05/09 08:24:58;;;;;;;7.60;6.83;;;;;;;15.71;96.03;101141.47;5242322;28;20025;-66
2023/05/09 08:27:29;;;;;;;7.73;6.60;;;;;;;15.68;96.58;101143.28;5275394;28;20033;-65
2023/05/09 08:30:01;;;;;;;7.20;6.40;;;;;;;15.37;97.69;101138.00;5242989;28;20453;-66
2023/05/09 08:32:32;;;;;;;8.23;6.50;;;;;;;15.29;98.47;101138.22;5243362;28;20477;-66
2023/05/09 08:35:04;;;;;;;7.00;6.30;;;;;;;15.11;99.38;101129.03;5242927;28;20044;-66
2023/05/09 08:37:36;;;;;;;;;;;;;;;15.40;99.46;101121.31;5243934;28;20025;-66
2023/05/09 08:40:08;;;;;;;10.85;7.68;;;;;;;15.14;99.75;101128.97;5241849;28;20283;-66
2023/05/09 08:42:44;;;;;;;8.07;7.18;;;;;;;15.13;100.00;101126.38;5243301;28;20366;-65
2023/05/09 08:45:24;;;;;;;8.13;7.07;;;;;;;14.95;100.00;101120.69;5242953;28;20036;-65
2023/05/09 08:47:56;;;;;;;8.70;7.72;;;;;;;15.05;100.00;101120.47;5242819;28;20033;-65
2023/05/09 08:50:27;;;;;;;9.13;7.90;;;;;;;15.13;100.00;101115.88;5243007;28;20036;-65
2023/05/09 08:52:59;;;;;;;8.50;7.63;;;;;;;15.22;100.00;101123.53;5242685;28;20055;-66
2023/05/09 08:55:31;;;;;;;9.90;7.80;;;;;;;15.08;100.00;101120.41;5243049;28;20037;-65
2023/05/09 08:58:03;;;;;;;12.55;6.97;;;;;;;14.97;100.00;101117.19;5242966;28;20033;-66
2023/05/09 09:00:37;;;;;;;8.45;6.88;;;;;;;15.06;100.00;101112.56;5242404;28;20037;-65
2023/05/09 09:03:08;;;;;;;9.02;7.38;;;;;;;15.15;100.00;101116.72;5242730;28;20041;-65
2023/05/09 09:05:41;;;;;;;11.93;7.22;;;;;;;15.20;100.00;101099.06;5242504;28;20041;-66
2023/05/09 09:08:13;;;;;;;;;;;;;;;15.39;100.00;101104.69;5243099;28;20033;-65
2023/05/09 09:10:47;;;;;;;7.45;5.28;;;;;;;15.03;100.00;101107.38;5242606;28;19970;-66
2023/05/09 09:13:20;;;;;;;9.20;5.88;;;;;;;14.86;100.00;101110.47;5242562;28;20021;-66
2023/05/09 09:15:52;;;;;;;8.85;5.55;;;;;;;14.81;100.00;101101.84;5242478;28;20063;-66
2023/05/09 09:18:28;;;;;;;6.32;4.50;;;;;;;14.64;100.00;101107.50;5242527;28;20094;-65
2023/05/09 09:21:05;;;;;;;7.25;5.47;;;;;;;14.62;100.00;101093.56;5242034;28;20104;-66
2023/05/09 09:23:40;;;;;;;7.38;5.68;;;;;;;14.55;100.00;101098.06;5242593;28;20427;-66
2023/05/09 09:26:12;;;;;;;6.63;4.68;;;;;;;14.71;100.00;101095.94;5241934;28;20030;-65
2023/05/09 09:28:43;;;;;;;8.20;4.68;;;;;;;14.84;100.00;101099.13;5257218;28;20389;-65
2023/05/09 09:31:23;;;;;;;6.23;4.43;;;;;;;14.77;100.00;101101.03;5241725;28;20045;-65
2023/05/09 09:33:59;;;;;;;6.22;5.00;;;;;;;14.88;100.00;101087.66;5241861;28;20029;-66
2023/05/09 09:36:31;;;;;;;7.53;4.53;;;;;;;15.01;100.00;101077.69;5242227;28;20376;-66
2023/05/09 09:39:04;;;;;;;4.88;3.95;;;;;;;15.29;100.00;101075.19;5242047;28;20039;-65
2023/05/09 09:41:37;;;;;;;5.05;3.85;;;;;;;15.63;100.00;101081.22;5241008;28;20128;-65
2023/05/09 09:44:11;;;;;;;6.03;4.53;;;;;;;15.70;100.00;101077.53;5241964;28;20481;-66
2023/05/09 09:46:49;;;;;;;6.88;4.50;;;;;;;15.69;100.00;101075.78;5241991;28;20099;-65
2023/05/09 09:49:22;;;;;;;5.47;4.00;;;;;;;16.01;100.00;101074.84;5241759;28;20042;-65
2023/05/09 09:51:55;;;;;;;7.65;5.40;;;;;;;16.09;100.00;101076.41;5241678;28;20033;-65
2023/05/09 09:54:27;;;;;;;8.50;5.18;;;;;;;16.01;99.69;101076.63;5241818;28;20032;-66
2023/05/09 09:56:58;;;;;;;10.68;5.45;;;;;;;15.67;99.94;101070.59;5242173;28;20033;-65
2023/05/09 09:59:30;;;;;;;7.43;4.33;;;;;;;15.85;100.00;101063.09;5240958;28;20064;-65
2023/05/09 10:02:03;;;;;;;6.27;4.97;;;;;;;15.74;100.00;101062.53;5241749;28;20350;-65
2023/05/09 10:04:42;;;;;;;7.72;4.88;;;;;;;15.69;100.00;101063.50;5241622;28;20037;-66
2023/05/09 10:07:13;;;;;;;7.68;5.45;;;;;;;15.59;100.00;101067.31;5241392;28;20072;-66
2023/05/09 10:09:45;;;;;;;6.77;5.53;;;;;;;15.71;100.00;101054.72;5273777;28;20096;-65
2023/05/09 10:12:18;;;;;;;8.30;5.00;;;;;;;15.61;100.00;101056.78;5241401;28;20037;-66
2023/05/09 10:14:50;;;;;;;6.82;5.50;;;;;;;15.50;100.00;101057.06;5241406;28;20040;-65
2023/05/09 10:17:22;;;;;;;10.07;6.37;;;;;;;15.52;100.00;101044.78;5241528;28;20033;-65
2023/05/09 10:19:54;;;;;;;6.43;4.90;;;;;;;15.49;100.00;101056.22;5241682;28;20033;-65
2023/05/09 10:22:28;;;;;;;6.65;4.65;;;;;;;15.48;100.00;101045.75;5241336;28;20032;-66
2023/05/09 10:25:07;;;;;;;6.60;5.07;;;;;;;15.53;100.00;101045.63;5241297;28;20432;-65
2023/05/09 10:27:43;;;;;;;5.90;4.65;;;;;;;15.45;100.00;101041.44;5241293;28;20029;-66
2023/05/09 10:30:21;;;;;;;9.38;5.78;;;;;;;15.32;100.00;101047.97;5239405;28;20128;-66
2023/05/09 10:32:57;;;;;;;5.75;4.93;;;;;;;15.25;100.00;101039.41;5244586;28;20035;-65
2023/05/09 10:35:45;;;;;;;8.75;5.53;;;;;;;15.36;100.00;101033.84;5245137;28;20112;-66
2023/05/09 10:38:17;;;;;;;6.72;5.78;;;;;;;15.27;100.00;101036.72;5245719;28;20132;-66
2023/05/09 10:40:49;;;;;;;8.35;5.60;;;;;;;15.14;100.00;101025.72;5245149;28;20064;-65
2023/05/09 10:43:23;;;;;;;11.27;6.68;;;;;;;15.09;100.00;101023.22;5245416;28;20037;-66
2023/05/09 10:45:55;;;;;;;8.75;6.07;;;;;;;14.98;100.00;101029.66;5245219;28;20037;-65
2023/05/09 10:48:27;;;;;;;8.00;6.13;;;;;;;14.94;100.00;101013.13;5245442;28;20033;-65
2023/05/09 10:51:02;;;;;;;8.27;5.95;;;;;;;14.89;100.00;101010.66;5245322;28;20026;-66
2023/05/09 10:53:42;;;;;;;8.05;6.10;;;;;;;15.02;100.00;101018.16;5245126;28;20025;-66
2023/05/09 10:56:30;;;;;;;9.23;6.30;;;;;;;15.02;100.00;101010.28;5245093;28;20108;-66
2023/05/09 10:59:02;;;;;;;9.57;5.57;;;;;;;14.78;100.00;101012.69;5245140;28;20033;-66
2023/05/09 11:01:36;;;;;;;7.53;5.90;;;;;;;14.61;100.00;101007.03;5244560;28;20107;-65
2023/05/09 11:04:15;;;;;;;9.50;6.93;;;;;;;14.54;100.00;101012.41;5244844;28;20029;-67
2023/05/09 11:06:49;;;;;;;6.45;5.85;;;;;;;14.55;100.00;101010.63;5244963;28;20029;-66
2023/05/09 11:09:41;;;;;;;8.38;6.65;;;;;;;14.47;100.00;101004.72;5244713;28;20120;-64
2023/05/09 11:12:14;;;;;;;8.18;6.85;;;;;;;14.36;100.00;100999.72;5244603;28;20077;-66
2023/05/09 11:14:47;;;;;;;7.38;6.20;;;;;;;14.30;100.00;100992.91;5244729;28;20129;-65
2023/05/09 11:17:21;;;;;;;7.82;6.65;;;;;;;14.24;100.00;100998.28;5244648;28;20034;-65
2023/05/09 11:20:04;;;;;;;8.48;5.82;;;;;;;14.25;100.00;100986.03;5244583;28;20476;-66
2023/05/09 11:22:43;;;;;;;8.43;5.38;;;;;;;14.17;100.00;100994.09;5244414;28;20378;-66
2023/05/09 11:25:15;;;;;;;6.45;5.30;;;;;;;14.14;100.00;100988.94;5244534;28;20484;-64
2023/05/09 11:27:50;;;;;;;7.13;6.30;;;;;;;14.08;100.00;100981.22;5244282;28;20428;-65
2023/05/09 11:30:22;;;;;;;10.63;6.10;;;;;;;13.98;100.00;100976.19;5243579;28;20052;-66
2023/05/09 11:32:54;;;;;;;8.83;6.07;;;;;;;13.89;100.00;100986.03;5244073;28;20033;-65
2023/05/09 11:35:26;;;;;;;6.80;5.25;;;;;;;13.86;100.00;100968.59;5244033;28;20032;-65